This is the latest recevied weather packets stored in our database for station/object KQ4OSL. If no packets are shown the sender has not sent any weather packets the latest 10 day(s).
| Time | Temp. | Humidity | Pressure | Rain* | Wind** | Luminosity | Snow |
|---|---|---|---|---|---|---|---|
| 1787853415 | 28.89° C | 78% | 1017.7 hPa | 0 mm | - | 729 W/m² | - |
| 1787853114 | 28.89° C | 79% | 1017.9 hPa | 0 mm | - | 217 W/m² | - |
| 1787852809 | 29.44° C | 78% | 1018 hPa | 0 mm | - | 815 W/m² | - |
| 1787852508 | 28.33° C | 79% | 1018 hPa | 0 mm | - | 637 W/m² | - |
| 1787852203 | 30° C | 76% | 1018 hPa | 0 mm | - | 346 W/m² | - |
| 1787851897 | 28.89° C | 76% | 1017.9 hPa | 0 mm | - | 810 W/m² | - |
| 1787851597 | 28.33° C | 79% | 1017.9 hPa | 0 mm | - | 386 W/m² | - |
| 1787851292 | 28.33° C | 78% | 1017.9 hPa | 0 mm | - | 875 W/m² | - |
| 1787850987 | 28.33° C | 82% | 1018.3 hPa | 0 mm | - | 376 W/m² | - |
| 1787850683 | 27.78° C | 82% | 1018.4 hPa | 0 mm | - | 400 W/m² | - |
| 1787850379 | 27.78° C | 81% | 1018.5 hPa | 0 mm | - | 241 W/m² | - |
| 1787850074 | 27.78° C | 86% | 1018.2 hPa | 0 mm | - | 362 W/m² | - |
| 1787849773 | 28.33° C | 83% | 1018.5 hPa | 0 mm | - | 845 W/m² | - |
| 1787849468 | 28.33° C | 83% | 1018.7 hPa | 0 mm | - | 827 W/m² | - |
| 1787849166 | 27.22° C | 85% | 1018.6 hPa | 0 mm | - | 532 W/m² | - |
| 1787828854 | 20.56° C | 99% | 1017.9 hPa | 3.05 mm | - | 0 W/m² | - |
| 1787828552 | 20.56° C | 99% | 1018.1 hPa | 6.1 mm | - | 0 W/m² | - |
| 1787828250 | 21.11° C | 99% | 1017.7 hPa | 3.05 mm | - | 0 W/m² | - |
| 1787827949 | 21.11° C | 99% | 1017.5 hPa | 0 mm | - | 0 W/m² | - |
| 1787827644 | 21.11° C | 99% | 1017.5 hPa | 0 mm | - | 0 W/m² | - |
| 1787827339 | 21.67° C | 99% | 1017.4 hPa | 0 mm | - | 0 W/m² | - |
| 1787827039 | 21.67° C | 97% | 1017.7 hPa | 0 mm | - | 0 W/m² | - |
| 1787826739 | 21.67° C | 97% | 1017.6 hPa | 0 mm | - | 0 W/m² | - |
| 1787826434 | 21.67° C | 97% | 1017.5 hPa | 0 mm | - | 0 W/m² | - |
| 1787826130 | 21.67° C | 97% | 1017.6 hPa | 0 mm | - | 0 W/m² | - |
* Rain latest hour (hover to see other rain measurements)
** Current wind speed in m/s (hover to see current wind gust speed)